createdAt,value
2018-05-02T00:00:20.750Z,12.82
2018-05-02T00:01:01.283Z,12.77
2018-05-02T00:01:41.807Z,12.77
2018-05-02T00:02:22.334Z,12.87
2018-05-02T00:03:02.857Z,12.92
2018-05-02T00:03:43.379Z,12.87
2018-05-02T00:04:23.904Z,12.87
2018-05-02T00:05:04.429Z,12.87
2018-05-02T00:05:44.966Z,12.89
2018-05-02T00:06:25.487Z,12.87
2018-05-02T00:07:06.001Z,12.87
2018-05-02T00:07:46.531Z,12.93
2018-05-02T00:08:27.072Z,12.87
2018-05-02T00:09:07.599Z,12.95
2018-05-02T00:09:48.124Z,13
2018-05-02T00:10:29.526Z,13.03
2018-05-02T00:11:10.056Z,12.86
2018-05-02T00:11:50.582Z,12.95
2018-05-02T00:12:31.107Z,12.87
2018-05-02T00:13:11.637Z,12.87
2018-05-02T00:13:52.168Z,12.89
2018-05-02T00:14:32.688Z,12.87
2018-05-02T00:15:13.213Z,12.9
2018-05-02T00:15:53.747Z,12.86
2018-05-02T00:16:34.270Z,12.96
2018-05-02T00:17:14.792Z,12.87
2018-05-02T00:17:55.321Z,12.89
2018-05-02T00:18:35.847Z,12.97
2018-05-02T00:19:16.379Z,12.86
2018-05-02T00:19:56.904Z,12.9
2018-05-02T00:20:37.431Z,12.89
2018-05-02T00:21:18.927Z,12.85
2018-05-02T00:21:59.451Z,12.85
2018-05-02T00:22:39.979Z,12.92
2018-05-02T00:23:20.968Z,12.92
2018-05-02T00:24:01.020Z,12.87
2018-05-02T00:24:41.545Z,12.82
2018-05-02T00:25:22.071Z,12.75
2018-05-02T00:26:02.604Z,12.79
2018-05-02T00:26:43.127Z,12.85
2018-05-02T00:27:23.654Z,12.78
2018-05-02T00:28:04.184Z,12.77
2018-05-02T00:28:44.708Z,12.78
2018-05-02T00:29:25.239Z,12.77
2018-05-02T00:30:06.701Z,12.86
2018-05-02T00:30:47.967Z,12.87
2018-05-02T00:31:27.737Z,12.86
2018-05-02T00:32:08.972Z,12.86
2018-05-02T00:32:49.534Z,12.85
2018-05-02T00:33:30.061Z,12.82
2018-05-02T00:34:10.656Z,12.79
2018-05-02T00:34:51.122Z,12.86
2018-05-02T00:35:31.650Z,12.82
2018-05-02T00:36:12.175Z,12.79
2018-05-02T00:36:53.474Z,12.87
2018-05-02T00:37:33.215Z,12.79
2018-05-02T00:38:14.735Z,12.89
2018-05-02T00:38:55.255Z,12.82
2018-05-02T00:39:35.792Z,12.82
2018-05-02T00:40:16.309Z,12.85
2018-05-02T00:40:56.829Z,12.71
2018-05-02T00:41:38.291Z,12.79
2018-05-02T00:42:18.817Z,12.82
2018-05-02T00:42:59.342Z,12.92
2018-05-02T00:43:40.416Z,12.86
2018-05-02T00:44:20.940Z,12.82
2018-05-02T00:45:01.467Z,12.86
2018-05-02T00:45:41.992Z,12.89
2018-05-02T00:46:22.533Z,12.74
2018-05-02T00:47:03.081Z,12.77
2018-05-02T00:47:43.602Z,12.92
2018-05-02T00:48:24.114Z,12.86
2018-05-02T00:49:04.640Z,12.93
2018-05-02T00:49:45.170Z,12.78
2018-05-02T00:50:25.694Z,12.89
2018-05-02T00:51:06.214Z,12.92
2018-05-02T00:51:46.743Z,12.9
2018-05-02T00:52:27.267Z,12.83
2018-05-02T00:53:07.800Z,12.92
2018-05-02T00:53:48.310Z,12.89
2018-05-02T00:54:28.835Z,12.92
2018-05-02T00:55:09.357Z,12.83
2018-05-02T00:55:49.881Z,12.93
2018-05-02T00:56:30.401Z,12.89
2018-05-02T00:57:11.663Z,12.82
2018-05-02T00:57:52.503Z,12.83
2018-05-02T00:58:33.021Z,12.79
2018-05-02T00:59:13.548Z,12.71
2018-05-02T00:59:54.070Z,12.7
2018-05-02T01:00:34.615Z,12.89
2018-05-02T01:01:15.141Z,12.82
2018-05-02T01:01:55.680Z,12.77
2018-05-02T01:02:36.211Z,12.79
2018-05-02T01:03:16.733Z,12.82
2018-05-02T01:03:57.792Z,12.86
2018-05-02T01:04:38.313Z,12.79
2018-05-02T01:05:18.838Z,12.85
2018-05-02T01:05:59.363Z,12.79
2018-05-02T01:06:39.885Z,12.77
2018-05-02T01:07:20.407Z,12.83
2018-05-02T01:08:01.687Z,12.78
2018-05-02T01:08:42.193Z,12.78
2018-05-02T01:09:22.720Z,12.79
2018-05-02T01:10:03.245Z,12.7
2018-05-02T01:10:43.765Z,12.78
2018-05-02T01:11:24.294Z,12.67
2018-05-02T01:12:04.817Z,12.67
2018-05-02T01:12:45.343Z,12.67
2018-05-02T01:13:25.863Z,12.67
2018-05-02T01:14:06.973Z,12.77
2018-05-02T01:14:46.905Z,12.75
2018-05-02T01:15:27.416Z,12.68
2018-05-02T01:16:07.931Z,12.71
2018-05-02T01:16:49.351Z,12.7
2018-05-02T01:17:29.902Z,12.71
2018-05-02T01:18:10.434Z,12.71
2018-05-02T01:18:50.952Z,12.56
2018-05-02T01:19:31.477Z,12.74
2018-05-02T01:20:11.990Z,12.56
2018-05-02T01:20:52.512Z,12.59
2018-05-02T01:21:33.047Z,12.59
2018-05-02T01:22:13.633Z,12.53
2018-05-02T01:22:54.163Z,12.67
2018-05-02T01:23:34.679Z,12.54
2018-05-02T01:24:15.205Z,12.59
2018-05-02T01:24:55.730Z,12.59
2018-05-02T01:25:36.249Z,12.6
2018-05-02T01:26:16.759Z,12.6
2018-05-02T01:26:57.282Z,12.56
2018-05-02T01:27:37.813Z,12.62
2018-05-02T01:28:19.236Z,12.56
2018-05-02T01:28:59.767Z,12.5
2018-05-02T01:29:41.063Z,12.52
2018-05-02T01:30:21.583Z,12.56
2018-05-02T01:31:02.110Z,12.53
2018-05-02T01:31:42.631Z,12.54
2018-05-02T01:32:23.707Z,12.54
2018-05-02T01:33:04.220Z,12.54
2018-05-02T01:33:44.771Z,12.53
2018-05-02T01:34:25.303Z,12.56
2018-05-02T01:35:06.474Z,12.49
2018-05-02T01:35:46.347Z,12.54
2018-05-02T01:36:26.861Z,12.52
2018-05-02T01:37:07.387Z,12.54
2018-05-02T01:37:47.917Z,12.56
2018-05-02T01:38:28.439Z,12.56
2018-05-02T01:39:08.969Z,12.5
2018-05-02T01:39:49.481Z,12.65
2018-05-02T01:40:30.013Z,12.6
2018-05-02T01:41:10.540Z,12.62
2018-05-02T01:41:51.069Z,12.53
2018-05-02T01:42:32.110Z,12.65
2018-05-02T01:43:12.638Z,12.57
2018-05-02T01:43:53.165Z,12.65
2018-05-02T01:44:33.690Z,12.54
2018-05-02T01:45:14.212Z,12.6
2018-05-02T01:45:54.736Z,12.64
2018-05-02T01:46:35.245Z,12.67
2018-05-02T01:47:15.772Z,12.67
2018-05-02T01:47:56.258Z,12.67
2018-05-02T01:48:36.758Z,12.74
2018-05-02T01:49:17.269Z,12.67
2018-05-02T01:49:57.790Z,12.65
2018-05-02T01:50:38.321Z,12.64
2018-05-02T01:51:18.843Z,12.65
2018-05-02T01:51:59.364Z,12.68
2018-05-02T01:52:39.879Z,12.68
2018-05-02T01:53:20.448Z,12.75
2018-05-02T01:54:00.972Z,12.67
2018-05-02T01:54:42.475Z,12.7
2018-05-02T01:55:22.016Z,12.78
2018-05-02T01:56:02.535Z,12.79
2018-05-02T01:56:43.059Z,12.78
2018-05-02T01:57:23.580Z,12.83
2018-05-02T01:58:04.118Z,12.78
2018-05-02T01:58:44.626Z,12.83
2018-05-02T01:59:25.149Z,12.85
2018-05-02T02:00:05.676Z,12.83
2018-05-02T02:00:46.217Z,12.86
2018-05-02T02:01:26.739Z,12.87
2018-05-02T02:02:07.263Z,12.82
2018-05-02T02:02:47.806Z,12.75
2018-05-02T02:03:28.326Z,12.74
2018-05-02T02:04:08.855Z,12.78
2018-05-02T02:04:49.374Z,12.83
2018-05-02T02:05:29.882Z,12.82
2018-05-02T02:06:10.420Z,12.89
2018-05-02T02:06:50.971Z,12.83
2018-05-02T02:07:31.500Z,12.85
2018-05-02T02:08:12.705Z,12.86
2018-05-02T02:08:53.234Z,12.79
2018-05-02T02:09:33.789Z,12.87
2018-05-02T02:10:14.310Z,12.87
2018-05-02T02:10:54.831Z,12.89
2018-05-02T02:11:35.978Z,12.87
2018-05-02T02:12:16.531Z,12.95
2018-05-02T02:12:57.052Z,12.89
2018-05-02T02:13:38.320Z,12.87
2018-05-02T02:14:18.843Z,12.83
2018-05-02T02:14:59.366Z,12.85
2018-05-02T02:15:39.894Z,12.87
2018-05-02T02:16:20.408Z,12.89
2018-05-02T02:17:00.940Z,12.89
2018-05-02T02:17:41.459Z,12.83
2018-05-02T02:18:21.989Z,12.86
2018-05-02T02:19:02.527Z,12.85
2018-05-02T02:19:43.049Z,12.87
2018-05-02T02:20:23.574Z,12.92
2018-05-02T02:21:05.710Z,12.89
2018-05-02T02:21:46.228Z,12.95
2018-05-02T02:22:26.754Z,12.95
2018-05-02T02:23:07.274Z,12.9
2018-05-02T02:23:47.801Z,12.87
2018-05-02T02:24:28.322Z,12.9
2018-05-02T02:25:08.859Z,12.87
2018-05-02T02:25:49.385Z,12.95
2018-05-02T02:26:29.901Z,12.87
2018-05-02T02:27:10.508Z,12.86
2018-05-02T02:27:50.968Z,12.86
2018-05-02T02:28:31.489Z,12.87
2018-05-02T02:29:12.021Z,12.87
2018-05-02T02:29:52.555Z,12.87
2018-05-02T02:30:33.067Z,12.79
2018-05-02T02:31:14.551Z,12.89
2018-05-02T02:31:55.073Z,12.87
2018-05-02T02:32:35.617Z,12.86
2018-05-02T02:33:16.154Z,12.83
2018-05-02T02:33:56.705Z,12.83
2018-05-02T02:34:37.205Z,12.87
2018-05-02T02:35:17.716Z,12.83
2018-05-02T02:35:58.256Z,12.89
2018-05-02T02:36:38.772Z,12.86
2018-05-02T02:37:19.297Z,12.89
2018-05-02T02:38:00.799Z,12.87
2018-05-02T02:38:41.323Z,12.87
2018-05-02T02:39:21.839Z,12.75
2018-05-02T02:40:03.246Z,12.75
2018-05-02T02:40:43.772Z,12.78
2018-05-02T02:41:24.303Z,12.75
2018-05-02T02:42:07.650Z,12.75
2018-05-02T02:42:48.160Z,12.83
2018-05-02T02:43:28.690Z,12.82
2018-05-02T02:44:09.209Z,12.78
2018-05-02T02:44:49.734Z,12.79
2018-05-02T02:45:30.261Z,12.89
2018-05-02T02:46:12.712Z,12.86
2018-05-02T02:46:53.242Z,12.83
2018-05-02T02:47:33.770Z,12.74
2018-05-02T02:48:14.307Z,12.92
2018-05-02T02:48:55.480Z,12.93
2018-05-02T02:49:35.342Z,12.86
2018-05-02T02:50:15.862Z,12.85
2018-05-02T02:50:56.364Z,12.78
2018-05-02T02:51:36.836Z,12.86
2018-05-02T02:52:17.357Z,12.89
2018-05-02T02:52:57.840Z,12.83
2018-05-02T02:53:38.413Z,12.92
2018-05-02T02:54:19.481Z,12.89
2018-05-02T02:54:59.736Z,12.93
2018-05-02T02:55:40.660Z,12.9
2018-05-02T02:56:21.041Z,12.83
2018-05-02T02:57:01.572Z,12.87
2018-05-02T02:57:42.099Z,12.87
2018-05-02T02:58:22.609Z,12.85
2018-05-02T02:59:03.131Z,12.85
2018-05-02T02:59:43.652Z,12.83
2018-05-02T03:00:24.171Z,12.92
2018-05-02T03:01:04.689Z,12.87
2018-05-02T03:01:45.216Z,12.78
2018-05-02T03:02:25.729Z,12.83
2018-05-02T03:03:06.229Z,12.83
2018-05-02T03:03:46.751Z,12.79
2018-05-02T03:04:27.303Z,12.78
2018-05-02T03:05:07.785Z,12.78
2018-05-02T03:05:48.297Z,12.87
2018-05-02T03:06:28.820Z,12.82
2018-05-02T03:07:09.326Z,12.75
2018-05-02T03:07:49.839Z,12.82
2018-05-02T03:08:30.365Z,12.7
2018-05-02T03:09:10.869Z,12.67
2018-05-02T03:09:51.380Z,12.67
2018-05-02T03:10:31.894Z,12.7
2018-05-02T03:11:12.408Z,12.74
2018-05-02T03:11:52.931Z,12.74
2018-05-02T03:12:33.447Z,12.71
2018-05-02T03:13:13.957Z,12.72
2018-05-02T03:13:55.338Z,12.74
2018-05-02T03:14:36.738Z,12.7
2018-05-02T03:15:17.237Z,12.7
2018-05-02T03:15:57.727Z,12.71
2018-05-02T03:16:38.221Z,12.67
2018-05-02T03:17:18.767Z,12.72
2018-05-02T03:17:59.270Z,12.7
2018-05-02T03:18:39.783Z,12.7
2018-05-02T03:19:20.354Z,12.72
2018-05-02T03:20:00.876Z,12.7
2018-05-02T03:20:41.324Z,12.77
2018-05-02T03:21:22.228Z,12.7
2018-05-02T03:22:02.988Z,12.71
2018-05-02T03:22:43.994Z,12.71
2018-05-02T03:23:24.431Z,12.7
2018-05-02T03:24:05.091Z,12.67
2018-05-02T03:24:46.520Z,12.64
2018-05-02T03:25:26.211Z,12.62
2018-05-02T03:26:06.806Z,12.62
2018-05-02T03:26:47.454Z,12.56
2018-05-02T03:27:27.980Z,12.59
2018-05-02T03:28:08.744Z,12.47
2018-05-02T03:28:49.276Z,12.54
2018-05-02T03:29:29.805Z,12.56
2018-05-02T03:30:10.323Z,12.53
2018-05-02T03:30:50.852Z,12.52
2018-05-02T03:31:31.541Z,12.53
2018-05-02T03:32:12.203Z,12.57
2018-05-02T03:32:52.734Z,12.5
2018-05-02T03:33:33.268Z,12.47
2018-05-02T03:34:14.077Z,12.47
2018-05-02T03:34:54.791Z,12.45
2018-05-02T03:35:35.210Z,12.42
2018-05-02T03:36:15.899Z,12.5
2018-05-02T03:36:56.491Z,12.42
2018-05-02T03:37:37.021Z,12.46
2018-05-02T03:38:17.565Z,12.38
2018-05-02T03:38:58.099Z,12.37
2018-05-02T03:39:38.628Z,12.38
2018-05-02T03:40:19.152Z,12.35
2018-05-02T03:40:59.681Z,12.37
2018-05-02T03:41:40.205Z,12.41
2018-05-02T03:42:20.731Z,12.32
2018-05-02T03:43:01.257Z,12.38
2018-05-02T03:43:42.145Z,12.23
2018-05-02T03:44:22.662Z,12.21
2018-05-02T03:45:03.193Z,12.35
2018-05-02T03:45:44.715Z,12.27
2018-05-02T03:46:24.304Z,12.38
2018-05-02T03:47:04.831Z,12.34
2018-05-02T03:47:45.363Z,12.39
2018-05-02T03:48:25.887Z,12.35
2018-05-02T03:49:06.411Z,12.35
2018-05-02T03:49:47.829Z,12.39
2018-05-02T03:50:28.357Z,12.34
2018-05-02T03:51:08.881Z,12.35
2018-05-02T03:51:49.404Z,12.5
2018-05-02T03:52:29.931Z,12.41
2018-05-02T03:53:10.442Z,12.5
2018-05-02T03:53:50.964Z,12.46
2018-05-02T03:54:31.481Z,12.45
2018-05-02T03:55:12.009Z,12.45
2018-05-02T03:55:52.535Z,12.42
2018-05-02T03:56:33.056Z,12.46
2018-05-02T03:57:13.580Z,12.52
2018-05-02T03:57:54.099Z,12.54
2018-05-02T03:58:34.627Z,12.56
2018-05-02T03:59:15.148Z,12.57
2018-05-02T03:59:55.670Z,12.53
2018-05-02T04:00:36.200Z,12.54
2018-05-02T04:01:16.728Z,12.52
2018-05-02T04:01:57.260Z,12.49
2018-05-02T04:02:37.786Z,12.57
2018-05-02T04:03:18.314Z,12.57
2018-05-02T04:03:58.832Z,12.56
2018-05-02T04:04:39.370Z,12.54
2018-05-02T04:05:19.896Z,12.52
2018-05-02T04:06:00.414Z,12.53
2018-05-02T04:06:40.951Z,12.53
2018-05-02T04:07:21.985Z,12.54
2018-05-02T04:08:02.008Z,12.56
2018-05-02T04:08:42.535Z,12.65
2018-05-02T04:09:23.060Z,12.62
2018-05-02T04:10:03.587Z,12.59
2018-05-02T04:10:44.105Z,12.56
2018-05-02T04:11:24.631Z,12.59
2018-05-02T04:12:05.148Z,12.59
2018-05-02T04:12:45.686Z,12.6
2018-05-02T04:13:26.217Z,12.57
2018-05-02T04:14:07.491Z,12.68
2018-05-02T04:14:47.255Z,12.59
2018-05-02T04:15:27.792Z,12.68
2018-05-02T04:16:08.306Z,12.67
2018-05-02T04:16:48.832Z,12.57
2018-05-02T04:17:29.361Z,12.62
2018-05-02T04:18:09.885Z,12.64
2018-05-02T04:18:50.456Z,12.68
2018-05-02T04:19:30.941Z,12.64
2018-05-02T04:20:11.459Z,12.53
2018-05-02T04:20:51.981Z,12.67
2018-05-02T04:21:32.498Z,12.7
2018-05-02T04:22:13.991Z,12.64
2018-05-02T04:22:53.547Z,12.67
2018-05-02T04:23:34.074Z,12.7
2018-05-02T04:24:14.600Z,12.72
2018-05-02T04:24:55.127Z,12.71
2018-05-02T04:25:35.654Z,12.72
2018-05-02T04:26:16.182Z,12.74
2018-05-02T04:26:56.704Z,12.67
2018-05-02T04:27:37.231Z,12.78
2018-05-02T04:28:17.759Z,12.83
2018-05-02T04:28:58.283Z,12.78
2018-05-02T04:29:38.812Z,12.77
2018-05-02T04:30:20.204Z,12.79
2018-05-02T04:31:00.731Z,12.85
2018-05-02T04:31:41.263Z,12.9
2018-05-02T04:32:21.785Z,12.93
2018-05-02T04:33:02.314Z,12.74
2018-05-02T04:33:42.842Z,12.85
2018-05-02T04:34:23.377Z,12.92
2018-05-02T04:35:03.904Z,12.92
2018-05-02T04:35:44.435Z,12.87
2018-05-02T04:36:24.959Z,12.87
2018-05-02T04:37:05.485Z,12.92
2018-05-02T04:37:46.012Z,13
2018-05-02T04:38:26.542Z,12.92
2018-05-02T04:39:07.061Z,12.96
2018-05-02T04:39:47.593Z,13.03
2018-05-02T04:40:28.124Z,13.04
2018-05-02T04:41:08.674Z,13.1
2018-05-02T04:41:49.164Z,13.15
2018-05-02T04:42:29.692Z,13.22
2018-05-02T04:43:10.221Z,13.23
2018-05-02T04:43:50.744Z,13.19
2018-05-02T04:44:34.258Z,13.36
2018-05-02T04:45:14.779Z,13.3
2018-05-02T04:45:56.133Z,13.3
2018-05-02T04:46:36.654Z,13.26
2018-05-02T04:47:17.183Z,13.26
2018-05-02T04:47:57.705Z,13.42
2018-05-02T04:48:38.239Z,13.45
2018-05-02T04:49:18.765Z,13.46
2018-05-02T04:49:59.290Z,13.39
2018-05-02T04:50:39.813Z,13.49
2018-05-02T04:51:20.343Z,13.51
2018-05-02T04:52:00.855Z,13.38
2018-05-02T04:52:41.471Z,13.46
2018-05-02T04:53:22.808Z,13.51
2018-05-02T04:54:04.664Z,13.55
2018-05-02T04:54:45.192Z,13.54
2018-05-02T04:55:25.790Z,13.57
2018-05-02T04:56:06.248Z,13.67
2018-05-02T04:56:46.778Z,13.64
2018-05-02T04:57:27.968Z,13.67
2018-05-02T04:58:08.496Z,13.67
2018-05-02T04:58:49.021Z,13.7
2018-05-02T04:59:29.603Z,13.79
2018-05-02T05:00:10.079Z,13.81
2018-05-02T05:00:50.595Z,13.88
2018-05-02T05:01:31.115Z,13.91
2018-05-02T05:02:11.641Z,13.91
2018-05-02T05:02:52.187Z,13.89
2018-05-02T05:03:33.616Z,13.88
2018-05-02T05:04:14.134Z,13.96
2018-05-02T05:04:54.667Z,13.92
2018-05-02T05:05:35.198Z,13.99
2018-05-02T05:06:15.730Z,13.99
2018-05-02T05:06:56.254Z,14
2018-05-02T05:07:36.779Z,13.99
2018-05-02T05:08:17.301Z,14.06
2018-05-02T05:08:57.829Z,14.1
2018-05-02T05:09:38.360Z,14.1
2018-05-02T05:10:18.890Z,14.1
2018-05-02T05:10:59.422Z,14.1
2018-05-02T05:11:39.935Z,14.15
2018-05-02T05:12:20.507Z,14.15
2018-05-02T05:13:00.988Z,14.21
2018-05-02T05:13:41.499Z,14.25
2018-05-02T05:14:22.022Z,14.22
2018-05-02T05:15:02.553Z,14.22
2018-05-02T05:15:43.068Z,14.21
2018-05-02T05:16:23.597Z,14.14
2018-05-02T05:17:04.125Z,14.12
2018-05-02T05:17:44.651Z,14.21
2018-05-02T05:18:25.232Z,14.09
2018-05-02T05:19:05.699Z,14.2
2018-05-02T05:19:46.230Z,14.21
2018-05-02T05:20:26.743Z,14.24
2018-05-02T05:21:07.276Z,14.24
2018-05-02T05:21:47.806Z,14.36
2018-05-02T05:22:28.335Z,14.39
2018-05-02T05:23:08.857Z,14.39
2018-05-02T05:23:49.384Z,14.55
2018-05-02T05:24:29.901Z,14.57
2018-05-02T05:25:10.437Z,14.54
2018-05-02T05:25:50.956Z,14.6
2018-05-02T05:26:31.487Z,14.62
2018-05-02T05:27:12.042Z,14.64
2018-05-02T05:27:52.537Z,14.7
2018-05-02T05:28:33.062Z,14.64
2018-05-02T05:29:13.592Z,14.72
2018-05-02T05:29:54.113Z,14.81
2018-05-02T05:30:34.641Z,14.86
2018-05-02T05:31:15.170Z,14.92
2018-05-02T05:31:55.693Z,14.95
2018-05-02T05:32:36.203Z,15.01
2018-05-02T05:33:16.730Z,15.09
2018-05-02T05:33:57.254Z,15.09
2018-05-02T05:34:37.787Z,15.13
2018-05-02T05:35:18.320Z,15.25
2018-05-02T05:35:58.846Z,15.35
2018-05-02T05:36:39.387Z,15.47
2018-05-02T05:37:19.916Z,15.53
2018-05-02T05:38:00.442Z,15.65
2018-05-02T05:38:40.967Z,15.68
2018-05-02T05:39:21.500Z,15.69
2018-05-02T05:40:02.064Z,15.71
2018-05-02T05:40:42.590Z,15.8
2018-05-02T05:41:23.116Z,15.83
2018-05-02T05:42:03.636Z,15.83
2018-05-02T05:42:44.166Z,15.83
2018-05-02T05:43:24.691Z,15.92
2018-05-02T05:44:05.220Z,15.93
2018-05-02T05:44:45.745Z,15.92
2018-05-02T05:45:26.273Z,16
2018-05-02T05:46:06.802Z,15.92
2018-05-02T05:46:47.328Z,15.93
2018-05-02T05:47:28.820Z,15.89
2018-05-02T05:48:09.345Z,15.92
2018-05-02T05:48:49.876Z,16.07
2018-05-02T05:49:30.398Z,16.12
2018-05-02T05:50:10.953Z,16.05
2018-05-02T05:50:51.483Z,16.09
2018-05-02T05:51:32.011Z,16.11
2018-05-02T05:52:12.528Z,16.12
2018-05-02T05:52:53.050Z,16.23
2018-05-02T05:53:33.583Z,16.31
2018-05-02T05:54:14.252Z,16.35
2018-05-02T05:54:54.654Z,16.53
2018-05-02T05:55:35.186Z,16.53
2018-05-02T05:56:15.724Z,16.63
2018-05-02T05:56:56.242Z,16.57
2018-05-02T05:57:36.777Z,16.71
2018-05-02T05:58:17.298Z,16.79
2018-05-02T05:58:57.833Z,16.81
2018-05-02T05:59:38.353Z,16.78
2018-05-02T06:00:18.883Z,16.85
2018-05-02T06:00:59.417Z,16.93
2018-05-02T06:01:39.945Z,16.89
2018-05-02T06:02:20.475Z,16.91
2018-05-02T06:03:01.503Z,16.96
2018-05-02T06:03:41.999Z,16.96
2018-05-02T06:04:22.061Z,17.04
2018-05-02T06:05:02.640Z,17.07
2018-05-02T06:05:43.108Z,16.96
2018-05-02T06:06:23.644Z,16.96
2018-05-02T06:07:04.182Z,16.98
2018-05-02T06:07:44.710Z,16.86
2018-05-02T06:08:25.247Z,16.97
2018-05-02T06:09:05.757Z,16.91
2018-05-02T06:09:46.293Z,16.86
2018-05-02T06:10:26.809Z,16.86
2018-05-02T06:11:08.132Z,16.86
2018-05-02T06:11:48.658Z,16.91
2018-05-02T06:12:29.185Z,16.85
2018-05-02T06:13:09.721Z,16.86
2018-05-02T06:13:50.251Z,16.83
2018-05-02T06:14:30.779Z,16.85
2018-05-02T06:15:11.306Z,16.83
2018-05-02T06:15:51.836Z,16.78
2018-05-02T06:16:32.356Z,16.71
2018-05-02T06:17:12.887Z,16.73
2018-05-02T06:17:53.439Z,16.73
2018-05-02T06:18:33.952Z,16.79
2018-05-02T06:19:14.473Z,16.86
2018-05-02T06:19:54.995Z,16.96
2018-05-02T06:20:35.539Z,17.06
2018-05-02T06:21:16.061Z,17.08
2018-05-02T06:21:56.594Z,17.15
2018-05-02T06:22:37.116Z,17.25
2018-05-02T06:23:18.511Z,17.18
2018-05-02T06:23:58.149Z,17.33
2018-05-02T06:24:38.664Z,17.33
2018-05-02T06:25:20.005Z,17.41
2018-05-02T06:25:59.727Z,17.54
2018-05-02T06:26:40.252Z,17.54
2018-05-02T06:27:20.773Z,17.55
2018-05-02T06:28:01.316Z,17.54
2018-05-02T06:28:41.832Z,17.54
2018-05-02T06:29:22.363Z,17.59
2018-05-02T06:30:02.891Z,17.58
2018-05-02T06:30:43.415Z,17.56
2018-05-02T06:31:23.948Z,17.59
2018-05-02T06:32:04.469Z,17.58
2018-05-02T06:32:45.006Z,17.59
2018-05-02T06:33:26.006Z,17.56
2018-05-02T06:34:06.027Z,17.7
2018-05-02T06:34:46.543Z,17.71
2018-05-02T06:35:27.073Z,17.78
2018-05-02T06:36:07.580Z,17.81
2018-05-02T06:36:48.113Z,17.79
2018-05-02T06:37:28.637Z,17.84
2018-05-02T06:38:09.140Z,17.93
2018-05-02T06:38:49.671Z,18.12
2018-05-02T06:39:30.203Z,18.12
2018-05-02T06:40:11.507Z,18.15
2018-05-02T06:40:51.249Z,18.25
2018-05-02T06:41:31.806Z,18.25
2018-05-02T06:42:12.293Z,18.18
2018-05-02T06:42:52.825Z,18.18
2018-05-02T06:43:33.471Z,18.3
2018-05-02T06:44:13.874Z,18.36
2018-05-02T06:44:54.404Z,18.35
2018-05-02T06:45:34.928Z,18.48
2018-05-02T06:46:15.441Z,18.47
2018-05-02T06:46:55.977Z,18.54
2018-05-02T06:47:36.489Z,18.52
2018-05-02T06:48:17.011Z,18.66
2018-05-02T06:48:57.521Z,18.82
2018-05-02T06:49:38.054Z,18.88
2018-05-02T06:50:18.602Z,18.88
2018-05-02T06:50:59.106Z,18.95
2018-05-02T06:51:39.643Z,19.02
2018-05-02T06:52:20.179Z,19.08
2018-05-02T06:53:00.694Z,18.98
2018-05-02T06:53:41.223Z,18.99
2018-05-02T06:54:21.737Z,19.13
2018-05-02T06:55:02.259Z,19.07
2018-05-02T06:55:42.794Z,19.06
2018-05-02T06:56:23.299Z,19.1
2018-05-02T06:57:03.816Z,19.08
2018-05-02T06:57:44.335Z,19.16
2018-05-02T06:58:24.856Z,19.19
2018-05-02T06:59:05.389Z,19.25
2018-05-02T06:59:45.906Z,19.26
2018-05-02T07:00:26.433Z,19.4
2018-05-02T07:01:06.959Z,19.41
2018-05-02T07:01:47.485Z,19.48
2018-05-02T07:02:28.009Z,19.63
2018-05-02T07:03:08.533Z,19.71
2018-05-02T07:03:49.063Z,19.92
2018-05-02T07:04:29.590Z,19.94
2018-05-02T07:05:10.099Z,20.02
2018-05-02T07:05:50.609Z,20.18
2018-05-02T07:06:31.123Z,20.43
2018-05-02T07:07:11.639Z,20.39
2018-05-02T07:07:52.136Z,20.73
2018-05-02T07:08:32.648Z,20.88
2018-05-02T07:09:13.173Z,21.07
2018-05-02T07:09:53.695Z,21.04
2018-05-02T07:10:34.205Z,21.19
2018-05-02T07:11:14.735Z,21.28
2018-05-02T07:11:55.983Z,21.65
2018-05-02T07:12:37.236Z,21.71
2018-05-02T07:13:17.757Z,21.9
2018-05-02T07:13:58.276Z,21.96
2018-05-02T07:14:38.799Z,22.28
2018-05-02T07:15:19.340Z,22.51
2018-05-02T07:15:59.875Z,22.67
2018-05-02T07:16:40.402Z,22.82
2018-05-02T07:17:20.930Z,22.88
2018-05-02T07:18:02.022Z,22.98
2018-05-02T07:18:41.934Z,22.95
2018-05-02T07:19:23.016Z,23.2
2018-05-02T07:20:03.585Z,23.25
2018-05-02T07:20:44.100Z,23.31
2018-05-02T07:21:24.637Z,23.32
2018-05-02T07:22:05.149Z,23.4
2018-05-02T07:22:45.670Z,23.48
2018-05-02T07:23:26.192Z,23.47
2018-05-02T07:24:07.534Z,23.51
2018-05-02T07:24:48.019Z,23.5
2018-05-02T07:25:28.517Z,23.65
2018-05-02T07:26:08.277Z,23.85
2018-05-02T07:26:48.807Z,24.06
2018-05-02T07:27:29.332Z,24.32
2018-05-02T07:28:09.849Z,24.5
2018-05-02T07:28:50.370Z,24.68
2018-05-02T07:29:31.853Z,25.02
2018-05-02T07:30:12.395Z,25.14
2018-05-02T07:30:52.909Z,25.27
2018-05-02T07:31:33.432Z,25.38
2018-05-02T07:32:13.955Z,25.6
2018-05-02T07:32:54.584Z,25.76
2018-05-02T07:33:35.020Z,25.91
2018-05-02T07:34:15.549Z,26.12
2018-05-02T07:34:56.074Z,26.26
2018-05-02T07:35:36.589Z,26.29
2018-05-02T07:36:17.122Z,26.35
2018-05-02T07:36:57.649Z,26.51
2018-05-02T07:37:38.171Z,26.72
2018-05-02T07:38:18.713Z,26.84
2018-05-02T07:38:59.229Z,26.99
2018-05-02T07:39:39.756Z,27.21
2018-05-02T07:40:20.287Z,27.41
2018-05-02T07:41:00.800Z,27.54
2018-05-02T07:41:41.341Z,27.7
2018-05-02T07:42:21.866Z,27.94
2018-05-02T07:43:02.376Z,28.18
2018-05-02T07:43:42.906Z,28.46
2018-05-02T07:44:23.440Z,28.52
2018-05-02T07:45:03.964Z,28.51
2018-05-02T07:45:44.494Z,28.49
2018-05-02T07:46:25.042Z,28.39
2018-05-02T07:47:05.572Z,28.39
2018-05-02T07:47:46.120Z,28.29
2018-05-02T07:48:27.525Z,28.22
2018-05-02T07:49:07.186Z,28.12
2018-05-02T07:49:47.686Z,28.15
2018-05-02T07:50:28.197Z,28.03
2018-05-02T07:51:08.747Z,27.96
2018-05-02T07:51:50.027Z,27.79
2018-05-02T07:52:29.787Z,27.65
2018-05-02T07:53:10.309Z,27.65
2018-05-02T07:53:50.839Z,27.46
2018-05-02T07:54:31.367Z,27.34
2018-05-02T07:55:11.876Z,27.24
2018-05-02T07:55:52.397Z,27.18
2018-05-02T07:56:33.008Z,27.03
2018-05-02T07:57:13.465Z,27.03
2018-05-02T07:57:55.030Z,26.95
2018-05-02T07:58:34.763Z,26.94
2018-05-02T07:59:15.310Z,26.91
2018-05-02T07:59:55.840Z,26.87
2018-05-02T08:00:36.372Z,26.85
2018-05-02T08:01:16.894Z,26.91
2018-05-02T08:01:57.419Z,26.89
2018-05-02T08:02:37.946Z,27.06
2018-05-02T08:03:18.473Z,27.1
2018-05-02T08:03:59.009Z,27.1
2018-05-02T08:04:39.547Z,27.13
2018-05-02T08:05:22.705Z,27.1
2018-05-02T08:06:03.281Z,27.13
2018-05-02T08:06:43.759Z,27.02
2018-05-02T08:07:24.289Z,27
2018-05-02T08:08:06.769Z,27.02
2018-05-02T08:08:47.291Z,27.04
2018-05-02T08:09:28.533Z,27
2018-05-02T08:10:08.332Z,27.1
2018-05-02T08:10:48.847Z,27.17
2018-05-02T08:11:29.367Z,27.13
2018-05-02T08:12:09.908Z,27.04
2018-05-02T08:12:50.427Z,27.04
2018-05-02T08:13:30.948Z,26.87
2018-05-02T08:14:11.477Z,26.87
2018-05-02T08:14:52.010Z,26.65
2018-05-02T08:15:32.543Z,26.55
2018-05-02T08:16:13.068Z,26.55
2018-05-02T08:16:53.597Z,26.33
2018-05-02T08:17:34.135Z,26.33
2018-05-02T08:18:14.673Z,26.29
2018-05-02T08:18:55.863Z,26.26
2018-05-02T08:19:36.384Z,26.23
2018-05-02T08:20:16.898Z,26.12
2018-05-02T08:20:57.430Z,26.09
2018-05-02T08:21:37.957Z,26.09
2018-05-02T08:22:18.498Z,26.12
2018-05-02T08:22:59.019Z,26.18
2018-05-02T08:23:39.552Z,26.28
2018-05-02T08:24:20.067Z,26.2
2018-05-02T08:25:00.596Z,26.33
2018-05-02T08:25:41.122Z,26.52
2018-05-02T08:26:21.652Z,26.7
2018-05-02T08:27:02.182Z,26.82
2018-05-02T08:27:42.717Z,26.89
2018-05-02T08:28:23.244Z,26.99
2018-05-02T08:29:03.771Z,27.1
2018-05-02T08:29:44.296Z,27.17
2018-05-02T08:30:24.818Z,27.21
2018-05-02T08:31:05.341Z,27.49
2018-05-02T08:31:45.875Z,27.51
2018-05-02T08:32:26.400Z,27.51
2018-05-02T08:33:06.934Z,27.55
2018-05-02T08:33:48.218Z,27.46
2018-05-02T08:34:28.738Z,27.47
2018-05-02T08:35:09.270Z,27.39
2018-05-02T08:35:49.843Z,27.24
2018-05-02T08:36:30.358Z,27.22
2018-05-02T08:37:10.893Z,27.17
2018-05-02T08:37:51.421Z,27.17
2018-05-02T08:38:31.932Z,27.04
2018-05-02T08:39:12.462Z,27.02
2018-05-02T08:39:52.994Z,27.09
2018-05-02T08:40:33.521Z,26.97
2018-05-02T08:41:14.047Z,26.97
2018-05-02T08:41:54.572Z,26.94
2018-05-02T08:42:35.715Z,27.03
2018-05-02T08:43:16.248Z,27.09
2018-05-02T08:43:56.783Z,27.27
2018-05-02T08:44:37.301Z,27.47